sensor_id;sensor_type;location;lat;lon;timestamp;pressure;altitude;pressure_sealevel;temperature;humidity
24013;BME280;12220;50.194;18.948;2024-01-11T00:01:56;103180.77;;;-8.94;64.76
24013;BME280;12220;50.194;18.948;2024-01-11T00:03:57;103186.72;;;-9.00;64.98
24013;BME280;12220;50.194;18.948;2024-01-11T00:06:09;103176.17;;;-8.98;65.23
24013;BME280;12220;50.194;18.948;2024-01-11T00:08:11;103172.64;;;-8.97;65.35
24013;BME280;12220;50.194;18.948;2024-01-11T00:10:12;103162.04;;;-8.97;65.27
24013;BME280;12220;50.194;18.948;2024-01-11T00:12:14;103161.95;;;-8.99;65.08
24013;BME280;12220;50.194;18.948;2024-01-11T00:14:24;103164.47;;;-9.02;64.98
24013;BME280;12220;50.194;18.948;2024-01-11T00:16:26;103165.14;;;-9.06;64.90
24013;BME280;12220;50.194;18.948;2024-01-11T00:18:27;103178.34;;;-9.07;65.18
24013;BME280;12220;50.194;18.948;2024-01-11T00:20:29;103175.77;;;-9.06;65.32
24013;BME280;12220;50.194;18.948;2024-01-11T00:22:40;103166.08;;;-9.05;65.38
24013;BME280;12220;50.194;18.948;2024-01-11T00:24:41;103158.11;;;-9.05;65.26
24013;BME280;12220;50.194;18.948;2024-01-11T00:26:43;103159.68;;;-9.09;65.08
24013;BME280;12220;50.194;18.948;2024-01-11T00:28:44;103168.40;;;-9.12;65.03
24013;BME280;12220;50.194;18.948;2024-01-11T00:30:56;103168.10;;;-9.18;65.07
24013;BME280;12220;50.194;18.948;2024-01-11T00:32:57;103153.78;;;-9.21;65.09
24013;BME280;12220;50.194;18.948;2024-01-11T00:34:58;103148.14;;;-9.27;64.98
24013;BME280;12220;50.194;18.948;2024-01-11T00:37:00;103142.38;;;-9.37;64.80
24013;BME280;12220;50.194;18.948;2024-01-11T00:39:11;103147.24;;;-9.46;64.76
24013;BME280;12220;50.194;18.948;2024-01-11T00:41:13;103156.60;;;-9.53;64.93
24013;BME280;12220;50.194;18.948;2024-01-11T00:43:14;103153.06;;;-9.53;65.31
24013;BME280;12220;50.194;18.948;2024-01-11T00:45:16;103139.05;;;-9.51;65.49
24013;BME280;12220;50.194;18.948;2024-01-11T00:47:27;103139.13;;;-9.49;65.57
24013;BME280;12220;50.194;18.948;2024-01-11T00:49:28;103137.52;;;-9.46;65.67
24013;BME280;12220;50.194;18.948;2024-01-11T00:51:30;103138.54;;;-9.43;65.73
24013;BME280;12220;50.194;18.948;2024-01-11T00:53:31;103139.73;;;-9.37;65.80
24013;BME280;12220;50.194;18.948;2024-01-11T00:55:43;103130.20;;;-9.33;65.86
24013;BME280;12220;50.194;18.948;2024-01-11T00:57:44;103133.98;;;-9.28;65.86
24013;BME280;12220;50.194;18.948;2024-01-11T00:59:45;103143.84;;;-9.25;65.73
24013;BME280;12220;50.194;18.948;2024-01-11T01:01:50;103136.77;;;-9.25;65.68
24013;BME280;12220;50.194;18.948;2024-01-11T01:03:58;103133.30;;;-9.24;65.71
24013;BME280;12220;50.194;18.948;2024-01-11T01:06:00;103125.41;;;-9.22;65.74
24013;BME280;12220;50.194;18.948;2024-01-11T01:08:03;103130.80;;;-9.21;65.72
24013;BME280;12220;50.194;18.948;2024-01-11T01:10:05;103133.53;;;-9.19;65.73
24013;BME280;12220;50.194;18.948;2024-01-11T01:12:14;103149.52;;;-9.18;65.65
24013;BME280;12220;50.194;18.948;2024-01-11T01:14:15;103144.07;;;-9.21;65.58
24013;BME280;12220;50.194;18.948;2024-01-11T01:16:16;103143.84;;;-9.25;65.42
24013;BME280;12220;50.194;18.948;2024-01-11T01:18:21;103136.48;;;-9.31;65.24
24013;BME280;12220;50.194;18.948;2024-01-11T01:20:30;103137.82;;;-9.39;65.11
24013;BME280;12220;50.194;18.948;2024-01-11T01:22:31;103140.02;;;-9.49;65.06
24013;BME280;12220;50.194;18.948;2024-01-11T01:24:32;103135.98;;;-9.58;65.01
24013;BME280;12220;50.194;18.948;2024-01-11T01:26:34;103134.79;;;-9.65;65.10
24013;BME280;12220;50.194;18.948;2024-01-11T01:28:45;103142.48;;;-9.70;65.28
24013;BME280;12220;50.194;18.948;2024-01-11T01:30:47;103137.09;;;-9.71;65.52
24013;BME280;12220;50.194;18.948;2024-01-11T01:32:48;103131.97;;;-9.68;65.75
24013;BME280;12220;50.194;18.948;2024-01-11T01:34:50;103132.20;;;-9.64;65.92
24013;BME280;12220;50.194;18.948;2024-01-11T01:37:03;103125.45;;;-9.57;66.01
24013;BME280;12220;50.194;18.948;2024-01-11T01:39:05;103114.17;;;-9.53;65.87
24013;BME280;12220;50.194;18.948;2024-01-11T01:41:06;103114.17;;;-9.53;65.60
24013;BME280;12220;50.194;18.948;2024-01-11T01:43:09;103118.42;;;-9.56;65.41
24013;BME280;12220;50.194;18.948;2024-01-11T01:45:16;103113.72;;;-9.62;65.36
24013;BME280;12220;50.194;18.948;2024-01-11T01:47:18;103114.47;;;-9.65;65.40
24013;BME280;12220;50.194;18.948;2024-01-11T01:49:20;103116.15;;;-9.67;65.58
24013;BME280;12220;50.194;18.948;2024-01-11T01:51:25;103114.52;;;-9.63;65.77
24013;BME280;12220;50.194;18.948;2024-01-11T01:53:32;103115.70;;;-9.58;65.92
24013;BME280;12220;50.194;18.948;2024-01-11T01:55:33;103114.17;;;-9.53;66.04
24013;BME280;12220;50.194;18.948;2024-01-11T01:57:35;103125.07;;;-9.47;66.11
24013;BME280;12220;50.194;18.948;2024-01-11T01:59:38;103121.91;;;-9.39;66.12
24013;BME280;12220;50.194;18.948;2024-01-11T02:01:48;103109.80;;;-9.34;66.12
24013;BME280;12220;50.194;18.948;2024-01-11T02:03:50;103109.20;;;-9.29;66.09
24013;BME280;12220;50.194;18.948;2024-01-11T02:05:53;103091.59;;;-9.26;65.89
24013;BME280;12220;50.194;18.948;2024-01-11T02:07:56;103100.48;;;-9.26;65.61
24013;BME280;12220;50.194;18.948;2024-01-11T02:10:03;103102.06;;;-9.30;65.67
24013;BME280;12220;50.194;18.948;2024-01-11T02:12:05;103104.71;;;-9.30;65.66
24013;BME280;12220;50.194;18.948;2024-01-11T02:14:10;103097.66;;;-9.29;65.77
24013;BME280;12220;50.194;18.948;2024-01-11T02:16:13;103103.21;;;-9.24;65.87
24013;BME280;12220;50.194;18.948;2024-01-11T02:18:18;103095.33;;;-9.23;65.91
24013;BME280;12220;50.194;18.948;2024-01-11T02:20:20;103083.98;;;-9.19;65.94
24013;BME280;12220;50.194;18.948;2024-01-11T02:22:32;103085.96;;;-9.15;65.86
24013;BME280;12220;50.194;18.948;2024-01-11T02:24:33;103090.30;;;-9.17;65.50
24013;BME280;12220;50.194;18.948;2024-01-11T02:26:35;103090.02;;;-9.23;65.19
24013;BME280;12220;50.194;18.948;2024-01-11T02:28:36;103091.37;;;-9.31;65.05
24013;BME280;12220;50.194;18.948;2024-01-11T02:30:38;103090.99;;;-9.39;65.05
24013;BME280;12220;50.194;18.948;2024-01-11T02:32:40;103087.94;;;-9.47;65.07
24013;BME280;12220;50.194;18.948;2024-01-11T02:34:49;103081.52;;;-9.52;65.08
24013;BME280;12220;50.194;18.948;2024-01-11T02:36:51;103085.59;;;-9.58;65.05
24013;BME280;12220;50.194;18.948;2024-01-11T02:38:53;103085.22;;;-9.66;65.07
24013;BME280;12220;50.194;18.948;2024-01-11T02:40:55;103076.17;;;-9.70;65.09
24013;BME280;12220;50.194;18.948;2024-01-11T02:43:11;103081.25;;;-9.74;65.12
24013;BME280;12220;50.194;18.948;2024-01-11T02:45:12;103083.66;;;-9.79;65.12
24013;BME280;12220;50.194;18.948;2024-01-11T02:47:14;103088.00;;;-9.81;65.20
24013;BME280;12220;50.194;18.948;2024-01-11T02:49:15;103088.82;;;-9.82;65.41
24013;BME280;12220;50.194;18.948;2024-01-11T02:51:20;103090.72;;;-9.79;65.61
24013;BME280;12220;50.194;18.948;2024-01-11T02:53:22;103090.06;;;-9.75;65.71
24013;BME280;12220;50.194;18.948;2024-01-11T02:55:24;103084.91;;;-9.72;65.67
24013;BME280;12220;50.194;18.948;2024-01-11T02:57:25;103083.31;;;-9.69;65.74
24013;BME280;12220;50.194;18.948;2024-01-11T02:59:36;103096.80;;;-9.64;65.83
24013;BME280;12220;50.194;18.948;2024-01-11T03:01:37;103097.05;;;-9.59;65.87
24013;BME280;12220;50.194;18.948;2024-01-11T03:03:39;103092.80;;;-9.56;65.75
24013;BME280;12220;50.194;18.948;2024-01-11T03:05:40;103093.62;;;-9.57;65.42
24013;BME280;12220;50.194;18.948;2024-01-11T03:07:51;103086.18;;;-9.64;65.14
24013;BME280;12220;50.194;18.948;2024-01-11T03:09:53;103080.43;;;-9.73;64.94
24013;BME280;12220;50.194;18.948;2024-01-11T03:11:54;103073.66;;;-9.85;64.81
24013;BME280;12220;50.194;18.948;2024-01-11T03:13:55;103078.49;;;-9.94;64.75
24013;BME280;12220;50.194;18.948;2024-01-11T03:16:07;103070.90;;;-10.04;64.79
24013;BME280;12220;50.194;18.948;2024-01-11T03:18:09;103060.80;;;-10.11;64.85
24013;BME280;12220;50.194;18.948;2024-01-11T03:20:12;103064.05;;;-10.17;65.02
24013;BME280;12220;50.194;18.948;2024-01-11T03:22:13;103068.53;;;-10.16;65.32
24013;BME280;12220;50.194;18.948;2024-01-11T03:24:22;103073.13;;;-10.12;65.58
24013;BME280;12220;50.194;18.948;2024-01-11T03:26:24;103056.55;;;-10.08;65.72
24013;BME280;12220;50.194;18.948;2024-01-11T03:28:25;103048.03;;;-10.02;65.83
24013;BME280;12220;50.194;18.948;2024-01-11T03:30:26;103043.03;;;-9.96;65.72
24013;BME280;12220;50.194;18.948;2024-01-11T03:32:38;103046.78;;;-9.92;65.61
24013;BME280;12220;50.194;18.948;2024-01-11T03:34:40;103041.54;;;-9.91;65.66
24013;BME280;12220;50.194;18.948;2024-01-11T03:36:41;103048.83;;;-9.87;65.71
24013;BME280;12220;50.194;18.948;2024-01-11T03:38:43;103044.58;;;-9.83;65.76
24013;BME280;12220;50.194;18.948;2024-01-11T03:40:53;103045.66;;;-9.79;65.78
24013;BME280;12220;50.194;18.948;2024-01-11T03:42:55;103034.30;;;-9.77;65.81
24013;BME280;12220;50.194;18.948;2024-01-11T03:44:56;103038.00;;;-9.73;65.80
24013;BME280;12220;50.194;18.948;2024-01-11T03:46:57;103031.95;;;-9.71;65.74
24013;BME280;12220;50.194;18.948;2024-01-11T03:49:09;103040.80;;;-9.70;65.69
24013;BME280;12220;50.194;18.948;2024-01-11T03:51:10;103045.35;;;-9.68;65.69
24013;BME280;12220;50.194;18.948;2024-01-11T03:53:12;103051.71;;;-9.64;65.75
24013;BME280;12220;50.194;18.948;2024-01-11T03:55:13;103042.10;;;-9.62;65.76
24013;BME280;12220;50.194;18.948;2024-01-11T03:57:24;103050.21;;;-9.59;65.56
24013;BME280;12220;50.194;18.948;2024-01-11T03:59:26;103050.13;;;-9.60;65.33
24013;BME280;12220;50.194;18.948;2024-01-11T04:01:27;103055.30;;;-9.64;65.24
24013;BME280;12220;50.194;18.948;2024-01-11T04:03:29;103053.45;;;-9.65;65.35
24013;BME280;12220;50.194;18.948;2024-01-11T04:05:40;102698.44;;;-11.61;65.30
24013;BME280;12220;50.194;18.948;2024-01-11T04:07:42;103056.19;;;-9.63;65.33
24013;BME280;12220;50.194;18.948;2024-01-11T04:09:44;103056.04;;;-9.66;65.19
24013;BME280;12220;50.194;18.948;2024-01-11T04:11:46;103046.25;;;-9.67;65.24
24013;BME280;12220;50.194;18.948;2024-01-11T04:13:55;103042.63;;;-9.69;65.24
24013;BME280;12220;50.194;18.948;2024-01-11T04:15:57;102696.46;;;-11.65;64.96
24013;BME280;12220;50.194;18.948;2024-01-11T04:17:58;103112.09;;;-9.76;64.95
24013;BME280;12220;50.194;18.948;2024-01-11T04:20:00;103037.41;;;-9.86;64.73
24013;BME280;12220;50.194;18.948;2024-01-11T04:22:11;103032.44;;;-9.96;64.64
24013;BME280;12220;50.194;18.948;2024-01-11T04:24:12;103026.66;;;-10.05;64.69
24013;BME280;12220;50.194;18.948;2024-01-11T04:26:14;103026.28;;;-10.13;64.77
24013;BME280;12220;50.194;18.948;2024-01-11T04:28:16;103011.95;;;-10.17;64.90
24013;BME280;12220;50.194;18.948;2024-01-11T04:30:26;103000.22;;;-10.22;64.88
24013;BME280;12220;50.194;18.948;2024-01-11T04:32:28;103005.10;;;-10.29;64.79
24013;BME280;12220;50.194;18.948;2024-01-11T04:34:29;103022.59;;;-10.33;64.88
24013;BME280;12220;50.194;18.948;2024-01-11T04:36:30;103034.05;;;-10.34;65.16
24013;BME280;12220;50.194;18.948;2024-01-11T04:38:42;103034.16;;;-10.31;65.41
24013;BME280;12220;50.194;18.948;2024-01-11T04:40:43;103052.13;;;-10.25;65.58
24013;BME280;12220;50.194;18.948;2024-01-11T04:42:47;103040.13;;;-10.19;65.69
24013;BME280;12220;50.194;18.948;2024-01-11T04:44:48;103035.12;;;-10.12;65.77
24013;BME280;12220;50.194;18.948;2024-01-11T04:46:57;103027.49;;;-10.06;65.67
24013;BME280;12220;50.194;18.948;2024-01-11T04:49:07;103028.49;;;-10.04;65.59
24013;BME280;12220;50.194;18.948;2024-01-11T04:51:09;103027.82;;;-10.00;65.49
24013;BME280;12220;50.194;18.948;2024-01-11T04:53:10;103019.88;;;-10.00;65.25
24013;BME280;12220;50.194;18.948;2024-01-11T04:55:14;102676.88;;;-12.03;64.95
24013;BME280;12220;50.194;18.948;2024-01-11T04:57:16;103031.97;;;-10.05;65.19
24013;BME280;12220;50.194;18.948;2024-01-11T04:59:18;102821.09;;;-11.25;65.26
24013;BME280;12220;50.194;18.948;2024-01-11T05:01:19;103030.48;;;-10.00;65.48
24013;BME280;12220;50.194;18.948;2024-01-11T05:03:30;103037.66;;;-9.97;65.53
24013;BME280;12220;50.194;18.948;2024-01-11T05:05:32;103035.20;;;-9.94;65.53
24013;BME280;12220;50.194;18.948;2024-01-11T05:07:34;103026.54;;;-9.90;65.55
24013;BME280;12220;50.194;18.948;2024-01-11T05:09:35;103029.26;;;-9.89;65.46
24013;BME280;12220;50.194;18.948;2024-01-11T05:11:45;103031.01;;;-9.89;65.27
24013;BME280;12220;50.194;18.948;2024-01-11T05:13:46;103023.80;;;-9.92;65.16
24013;BME280;12220;50.194;18.948;2024-01-11T05:15:49;103014.72;;;-9.97;64.98
24013;BME280;12220;50.194;18.948;2024-01-11T05:17:51;103004.65;;;-10.04;64.77
24013;BME280;12220;50.194;18.948;2024-01-11T05:20:00;103000.69;;;-10.12;64.66
24013;BME280;12220;50.194;18.948;2024-01-11T05:22:02;102999.29;;;-10.22;64.69
24013;BME280;12220;50.194;18.948;2024-01-11T05:24:04;102994.62;;;-10.28;64.87
24013;BME280;12220;50.194;18.948;2024-01-11T05:26:06;102984.02;;;-10.28;65.20
24013;BME280;12220;50.194;18.948;2024-01-11T05:28:16;102904.19;;;-10.70;65.22
24013;BME280;12220;50.194;18.948;2024-01-11T05:30:17;102979.03;;;-10.22;65.31
24013;BME280;12220;50.194;18.948;2024-01-11T05:32:19;102965.02;;;-10.19;65.40
24013;BME280;12220;50.194;18.948;2024-01-11T05:34:20;102956.16;;;-10.20;65.25
24013;BME280;12220;50.194;18.948;2024-01-11T05:36:34;102975.63;;;-10.19;65.15
24013;BME280;12220;50.194;18.948;2024-01-11T05:38:36;102979.92;;;-10.21;65.27
24013;BME280;12220;50.194;18.948;2024-01-11T05:40:42;102989.71;;;-10.20;65.37
24013;BME280;12220;50.194;18.948;2024-01-11T05:42:49;102990.76;;;-10.17;65.51
24013;BME280;12220;50.194;18.948;2024-01-11T05:44:56;102997.22;;;-10.11;65.55
24013;BME280;12220;50.194;18.948;2024-01-11T05:47:08;102990.16;;;-10.11;65.47
24013;BME280;12220;50.194;18.948;2024-01-11T05:49:10;103003.41;;;-10.11;65.39
24013;BME280;12220;50.194;18.948;2024-01-11T05:51:11;103002.43;;;-10.13;65.36
24013;BME280;12220;50.194;18.948;2024-01-11T05:53:13;102998.03;;;-10.12;65.43
24013;BME280;12220;50.194;18.948;2024-01-11T05:55:24;102982.29;;;-10.09;65.56
24013;BME280;12220;50.194;18.948;2024-01-11T05:57:25;102975.34;;;-10.07;65.48
24013;BME280;12220;50.194;18.948;2024-01-11T05:59:27;102982.29;;;-10.09;65.29
24013;BME280;12220;50.194;18.948;2024-01-11T06:01:28;102969.97;;;-10.09;65.36
24013;BME280;12220;50.194;18.948;2024-01-11T06:03:39;102962.02;;;-10.09;65.32
24013;BME280;12220;50.194;18.948;2024-01-11T06:05:41;102966.38;;;-10.09;65.28
24013;BME280;12220;50.194;18.948;2024-01-11T06:07:42;102969.10;;;-10.08;65.42
24013;BME280;12220;50.194;18.948;2024-01-11T06:09:44;102970.85;;;-10.08;65.47
24013;BME280;12220;50.194;18.948;2024-01-11T06:11:55;102970.05;;;-10.07;65.61
24013;BME280;12220;50.194;18.948;2024-01-11T06:13:56;102981.69;;;-10.04;65.59
24013;BME280;12220;50.194;18.948;2024-01-11T06:15:58;102989.71;;;-10.02;65.59
24013;BME280;12220;50.194;18.948;2024-01-11T06:17:59;102992.43;;;-10.01;65.61
24013;BME280;12220;50.194;18.948;2024-01-11T06:20:11;102990.80;;;-9.99;65.62
24013;BME280;12220;50.194;18.948;2024-01-11T06:22:12;102979.42;;;-9.96;65.66
24013;BME280;12220;50.194;18.948;2024-01-11T06:24:14;102979.59;;;-9.93;65.69
24013;BME280;12220;50.194;18.948;2024-01-11T06:26:15;102981.53;;;-9.89;65.63
24013;BME280;12220;50.194;18.948;2024-01-11T06:28:27;102981.62;;;-9.87;65.56
24013;BME280;12220;50.194;18.948;2024-01-11T06:30:28;102971.86;;;-9.88;65.51
24013;BME280;12220;50.194;18.948;2024-01-11T06:32:29;102851.41;;;-10.49;65.28
24013;BME280;12220;50.194;18.948;2024-01-11T06:34:31;102960.18;;;-9.92;65.18
24013;BME280;12220;50.194;18.948;2024-01-11T06:36:42;102954.59;;;-9.98;65.12
24013;BME280;12220;50.194;18.948;2024-01-11T06:38:44;102954.28;;;-10.04;65.20
24013;BME280;12220;50.194;18.948;2024-01-11T06:40:46;102950.71;;;-10.05;65.35
24013;BME280;12220;50.194;18.948;2024-01-11T06:42:47;102946.41;;;-10.03;65.51
24013;BME280;12220;50.194;18.948;2024-01-11T06:44:57;102947.53;;;-9.97;65.69
24013;BME280;12220;50.194;18.948;2024-01-11T06:46:59;102936.26;;;-9.93;65.76
24013;BME280;12220;50.194;18.948;2024-01-11T06:49:05;102909.81;;;-9.92;65.64
24013;BME280;12220;50.194;18.948;2024-01-11T06:51:07;102912.39;;;-9.93;65.37
24013;BME280;12220;50.194;18.948;2024-01-11T06:53:13;102902.41;;;-9.99;65.22
24013;BME280;12220;50.194;18.948;2024-01-11T06:55:14;102896.73;;;-10.07;65.20
24013;BME280;12220;50.194;18.948;2024-01-11T06:57:16;102899.16;;;-10.11;65.20
24013;BME280;12220;50.194;18.948;2024-01-11T06:59:17;102891.88;;;-10.16;65.34
24013;BME280;12220;50.194;18.948;2024-01-11T07:01:29;102893.71;;;-10.14;65.62
24013;BME280;12220;50.194;18.948;2024-01-11T07:03:30;102887.80;;;-10.09;65.85
24013;BME280;12220;50.194;18.948;2024-01-11T07:05:31;102889.75;;;-10.05;65.99
24013;BME280;12220;50.194;18.948;2024-01-11T07:07:32;102894.52;;;-9.97;66.08
24013;BME280;12220;50.194;18.948;2024-01-11T07:09:45;102893.08;;;-9.91;66.15
24013;BME280;12220;50.194;18.948;2024-01-11T07:12:06;102893.38;;;-9.85;66.12
24013;BME280;12220;50.194;18.948;2024-01-11T07:14:08;102889.97;;;-9.82;66.12
24013;BME280;12220;50.194;18.948;2024-01-11T07:16:09;102897.31;;;-9.76;66.17
24013;BME280;12220;50.194;18.948;2024-01-11T07:18:11;102885.17;;;-9.71;66.17
24013;BME280;12220;50.194;18.948;2024-01-11T07:20:21;102872.98;;;-9.68;66.15
24013;BME280;12220;50.194;18.948;2024-01-11T07:22:23;102859.79;;;-9.66;66.15
24013;BME280;12220;50.194;18.948;2024-01-11T07:24:25;102864.33;;;-9.64;66.18
24013;BME280;12220;50.194;18.948;2024-01-11T07:26:27;102852.11;;;-9.60;66.22
24013;BME280;12220;50.194;18.948;2024-01-11T07:28:37;102849.66;;;-9.55;66.38
24013;BME280;12220;50.194;18.948;2024-01-11T07:30:38;102861.34;;;-9.52;66.47
24013;BME280;12220;50.194;18.948;2024-01-11T07:32:40;102864.20;;;-9.47;66.61
24013;BME280;12220;50.194;18.948;2024-01-11T07:34:42;102868.82;;;-9.43;66.70
24013;BME280;12220;50.194;18.948;2024-01-11T07:36:53;102880.40;;;-9.41;66.76
24013;BME280;12220;50.194;18.948;2024-01-11T07:38:56;102876.91;;;-9.40;66.76
24013;BME280;12220;50.194;18.948;2024-01-11T07:40:57;102879.70;;;-9.37;66.86
24013;BME280;12220;50.194;18.948;2024-01-11T07:42:58;102886.15;;;-9.32;66.97
24013;BME280;12220;50.194;18.948;2024-01-11T07:45:11;102903.23;;;-9.25;67.14
24013;BME280;12220;50.194;18.948;2024-01-11T07:47:13;102911.65;;;-9.16;67.31
24013;BME280;12220;50.194;18.948;2024-01-11T07:49:14;102909.40;;;-9.06;67.41
24013;BME280;12220;50.194;18.948;2024-01-11T07:51:16;102902.70;;;-8.98;67.49
24013;BME280;12220;50.194;18.948;2024-01-11T07:53:25;102888.93;;;-8.89;67.56
24013;BME280;12220;50.194;18.948;2024-01-11T07:55:26;102882.25;;;-8.80;67.65
24013;BME280;12220;50.194;18.948;2024-01-11T07:57:28;102873.84;;;-8.69;67.75
24013;BME280;12220;50.194;18.948;2024-01-11T07:59:33;102875.22;;;-8.58;67.90
24013;BME280;12220;50.194;18.948;2024-01-11T08:01:40;102866.05;;;-8.44;68.08
24013;BME280;12220;50.194;18.948;2024-01-11T08:03:42;102853.23;;;-8.33;68.24
24013;BME280;12220;50.194;18.948;2024-01-11T08:05:48;102842.38;;;-8.16;68.44
24013;BME280;12220;50.194;18.948;2024-01-11T08:07:51;102837.59;;;-8.02;68.59
24013;BME280;12220;50.194;18.948;2024-01-11T08:09:56;102829.41;;;-7.86;68.79
24013;BME280;12220;50.194;18.948;2024-01-11T08:11:57;102828.30;;;-7.68;69.00
24013;BME280;12220;50.194;18.948;2024-01-11T08:13:59;102814.06;;;-7.46;69.19
24013;BME280;12220;50.194;18.948;2024-01-11T08:16:04;102813.10;;;-7.24;69.36
24013;BME280;12220;50.194;18.948;2024-01-11T08:18:11;102805.19;;;-6.97;69.96
24013;BME280;12220;50.194;18.948;2024-01-11T08:20:14;102800.87;;;-6.68;70.41
24013;BME280;12220;50.194;18.948;2024-01-11T08:22:16;102815.30;;;-6.34;70.51
24013;BME280;12220;50.194;18.948;2024-01-11T08:24:17;102802.91;;;-6.04;70.32
24013;BME280;12220;50.194;18.948;2024-01-11T08:26:26;102803.76;;;-5.76;70.18
24013;BME280;12220;50.194;18.948;2024-01-11T08:28:28;102803.53;;;-5.54;69.99
24013;BME280;12220;50.194;18.948;2024-01-11T08:30:29;102810.40;;;-5.32;69.82
24013;BME280;12220;50.194;18.948;2024-01-11T08:32:31;102812.78;;;-5.11;69.69
24013;BME280;12220;50.194;18.948;2024-01-11T08:34:42;102798.23;;;-4.88;69.51
24013;BME280;12220;50.194;18.948;2024-01-11T08:36:43;102789.02;;;-4.66;68.90
24013;BME280;12220;50.194;18.948;2024-01-11T08:38:44;102792.34;;;-4.40;68.89
24013;BME280;12220;50.194;18.948;2024-01-11T08:40:46;102778.70;;;-4.14;68.67
24013;BME280;12220;50.194;18.948;2024-01-11T08:42:57;102773.84;;;-3.93;67.90
24013;BME280;12220;50.194;18.948;2024-01-11T08:45:00;102772.48;;;-3.74;67.72
24013;BME280;12220;50.194;18.948;2024-01-11T08:47:08;102770.20;;;-3.55;67.31
24013;BME280;12220;50.194;18.948;2024-01-11T08:49:10;102783.91;;;-3.38;66.81
24013;BME280;12220;50.194;18.948;2024-01-11T08:51:14;102787.78;;;-3.24;66.31
24013;BME280;12220;50.194;18.948;2024-01-11T08:53:24;102797.87;;;-3.10;66.25
24013;BME280;12220;50.194;18.948;2024-01-11T08:55:25;102798.98;;;-2.99;65.78
24013;BME280;12220;50.194;18.948;2024-01-11T08:57:33;102811.68;;;-2.89;65.80
24013;BME280;12220;50.194;18.948;2024-01-11T08:59:36;102815.41;;;-2.82;65.65
24013;BME280;12220;50.194;18.948;2024-01-11T09:01:38;102822.63;;;-2.78;65.13
24013;BME280;12220;50.194;18.948;2024-01-11T09:03:41;102819.13;;;-2.72;65.05
24013;BME280;12220;50.194;18.948;2024-01-11T09:05:42;102809.42;;;-2.66;64.83
24013;BME280;12220;50.194;18.948;2024-01-11T09:07:46;102829.26;;;-2.57;64.79
24013;BME280;12220;50.194;18.948;2024-01-11T09:09:48;102823.96;;;-2.53;63.95
24013;BME280;12220;50.194;18.948;2024-01-11T09:11:50;102834.83;;;-2.45;64.20
24013;BME280;12220;50.194;18.948;2024-01-11T09:13:51;102818.82;;;-2.39;63.40
24013;BME280;12220;50.194;18.948;2024-01-11T09:16:01;102798.39;;;-2.31;63.37
24013;BME280;12220;50.194;18.948;2024-01-11T09:18:02;102550.27;;;-3.72;63.12
24013;BME280;12220;50.194;18.948;2024-01-11T09:20:07;102818.34;;;-2.15;63.03
24013;BME280;12220;50.194;18.948;2024-01-11T09:22:10;102820.22;;;-2.09;63.03
24013;BME280;12220;50.194;18.948;2024-01-11T09:24:16;102823.91;;;-2.02;62.70
24013;BME280;12220;50.194;18.948;2024-01-11T09:26:18;102823.14;;;-1.95;62.52
24013;BME280;12220;50.194;18.948;2024-01-11T09:28:20;102819.58;;;-1.91;62.22
24013;BME280;12220;50.194;18.948;2024-01-11T09:30:21;102820.57;;;-1.86;61.90
24013;BME280;12220;50.194;18.948;2024-01-11T09:32:31;102820.63;;;-1.81;62.15
24013;BME280;12220;50.194;18.948;2024-01-11T09:34:33;102814.41;;;-1.79;61.88
24013;BME280;12220;50.194;18.948;2024-01-11T09:36:34;102811.78;;;-1.74;62.00
24013;BME280;12220;50.194;18.948;2024-01-11T09:38:37;102804.73;;;-1.67;61.66
24013;BME280;12220;50.194;18.948;2024-01-11T09:40:49;102805.68;;;-1.62;61.45
24013;BME280;12220;50.194;18.948;2024-01-11T09:42:54;102803.03;;;-1.59;61.38
24013;BME280;12220;50.194;18.948;2024-01-11T09:44:56;102798.59;;;-1.59;60.98
24013;BME280;12220;50.194;18.948;2024-01-11T09:47:00;102809.38;;;-1.54;60.98
24013;BME280;12220;50.194;18.948;2024-01-11T09:49:04;102805.82;;;-1.53;60.83
24013;BME280;12220;50.194;18.948;2024-01-11T09:51:08;102799.54;;;-1.52;60.51
24013;BME280;12220;50.194;18.948;2024-01-11T09:53:14;102785.22;;;-1.52;59.61
24013;BME280;12220;50.194;18.948;2024-01-11T09:55:17;102784.36;;;-1.50;59.49
24013;BME280;12220;50.194;18.948;2024-01-11T09:59:41;102771.92;;;-1.40;59.13
24013;BME280;12220;50.194;18.948;2024-01-11T10:01:43;102766.58;;;-1.37;59.06
24013;BME280;12220;50.194;18.948;2024-01-11T10:03:45;102765.72;;;-1.34;58.81
24013;BME280;12220;50.194;18.948;2024-01-11T10:05:50;102759.50;;;-1.30;58.92
24013;BME280;12220;50.194;18.948;2024-01-11T10:07:55;102758.66;;;-1.26;59.18
24013;BME280;12220;50.194;18.948;2024-01-11T10:09:56;102751.50;;;-1.24;59.38
24013;BME280;12220;50.194;18.948;2024-01-11T10:11:59;102749.78;;;-1.19;59.23
24013;BME280;12220;50.194;18.948;2024-01-11T10:14:01;102745.31;;;-1.15;59.45
24013;BME280;12220;50.194;18.948;2024-01-11T10:16:11;102749.85;;;-1.11;59.60
24013;BME280;12220;50.194;18.948;2024-01-11T10:18:19;102747.20;;;-1.08;59.69
24013;BME280;12220;50.194;18.948;2024-01-11T10:20:24;101567.78;;;-8.45;59.12
24013;BME280;12220;50.194;18.948;2024-01-11T10:22:25;102729.34;;;-1.01;59.76
24013;BME280;12220;50.194;18.948;2024-01-11T10:24:29;102728.49;;;-0.97;59.57
24013;BME280;12220;50.194;18.948;2024-01-11T10:26:30;102715.06;;;-0.96;59.69
24013;BME280;12220;50.194;18.948;2024-01-11T10:28:33;102716.88;;;-0.93;59.43
24013;BME280;12220;50.194;18.948;2024-01-11T10:30:39;102718.68;;;-0.89;59.28
24013;BME280;12220;50.194;18.948;2024-01-11T10:32:45;102705.26;;;-0.86;59.28
24013;BME280;12220;50.194;18.948;2024-01-11T10:34:46;102717.86;;;-0.82;59.20
24013;BME280;12220;50.194;18.948;2024-01-11T10:36:53;102706.23;;;-0.78;58.88
24013;BME280;12220;50.194;18.948;2024-01-11T10:38:55;102708.97;;;-0.72;59.10
24013;BME280;12220;50.194;18.948;2024-01-11T10:41:00;102712.59;;;-0.69;58.63